Time;durP1;ratioP1;P1;durP2;ratioP2;P2;SDS_P1;SDS_P2;PMS_P1;PMS_P2;Temp;Humidity;BMP_temperature;BMP_pressure;BME280_temperature;BME280_humidity;BME280_pressure;Samples;Min_cycle;Max_cycle;Signal;HPM_P1;HPM_P2
2021/08/02 00:00:13;;;;;;;0.00;0.00;;;14.10;99.90;;;;;;5028315;28;20199;-91
2021/08/02 00:02:53;;;;;;;0.10;0.10;;;14.20;99.90;;;;;;5030048;28;20041;-92
2021/08/02 00:05:23;;;;;;;0.00;0.00;;;14.30;99.90;;;;;;5012181;28;20041;-90
2021/08/02 00:07:57;;;;;;;0.10;0.10;;;14.40;99.90;;;;;;5011580;28;20060;-91
2021/08/02 00:10:28;;;;;;;0.63;0.40;;;14.50;99.90;;;;;;5011786;28;20490;-90
2021/08/02 00:13:01;;;;;;;0.00;0.00;;;14.50;99.90;;;;;;5029680;28;20536;-91
2021/08/02 00:15:28;;;;;;;0.15;0.15;;;14.50;99.90;;;;;;5029589;28;20067;-91
2021/08/02 00:17:54;;;;;;;0.10;0.10;;;14.50;99.90;;;;;;5010563;28;20037;-90
2021/08/02 00:20:28;;;;;;;0.10;0.10;;;14.40;99.90;;;;;;5011669;28;20033;-91
2021/08/02 00:22:55;;;;;;;0.00;0.00;;;14.40;99.90;;;;;;5028928;28;20321;-91
2021/08/02 00:25:21;;;;;;;0.00;0.00;;;14.40;99.90;;;;;;5028773;28;20017;-91
2021/08/02 00:27:48;;;;;;;0.00;0.00;;;14.50;99.90;;;;;;5027884;28;20030;-91
2021/08/02 00:30:14;;;;;;;0.03;0.03;;;14.50;99.90;;;;;;5029168;28;20048;-91
2021/08/02 00:32:40;;;;;;;0.10;0.10;;;14.50;99.90;;;;;;5028500;28;21758;-91
2021/08/02 00:35:06;;;;;;;0.10;0.10;;;14.40;99.90;;;;;;5026804;28;20108;-91
2021/08/02 00:37:38;;;;;;;0.10;0.10;;;14.30;99.90;;;;;;5011185;28;20056;-91
2021/08/02 00:40:23;;;;;;;0.45;0.45;;;14.30;99.90;;;;;;5028344;28;20030;-91
2021/08/02 00:43:14;;;;;;;0.00;0.00;;;14.30;99.90;;;;;;5027927;28;20033;-91
2021/08/02 00:45:43;;;;;;;0.10;0.10;;;14.30;99.90;;;;;;5024322;28;20041;-91
2021/08/02 00:48:15;;;;;;;0.10;0.10;;;14.40;99.90;;;;;;5010312;28;20049;-91
2021/08/02 00:50:49;;;;;;;0.00;0.00;;;14.40;99.90;;;;;;5010803;28;20557;-91
2021/08/02 00:53:21;;;;;;;0.10;0.10;;;14.40;99.90;;;;;;5010795;28;20064;-91
2021/08/02 00:55:50;;;;;;;0.20;0.20;;;14.50;99.90;;;;;;5028656;28;20494;-91
2021/08/02 00:58:21;;;;;;;0.22;0.10;;;14.50;99.90;;;;;;5028241;28;20034;-91
2021/08/02 01:00:51;;;;;;;0.17;0.17;;;14.50;99.90;;;;;;5010093;28;20032;-91
2021/08/02 01:03:18;;;;;;;0.10;0.10;;;14.40;99.90;;;;;;5010608;28;20402;-92
2021/08/02 01:05:47;;;;;;;0.10;0.10;;;14.40;99.90;;;;;;5027556;28;20088;-91
2021/08/02 01:08:22;;;;;;;0.10;0.10;;;14.30;99.90;;;;;;5029400;28;20033;-92
2021/08/02 01:10:55;;;;;;;0.20;0.20;;;14.30;99.90;;;;;;5029589;28;20022;-92
2021/08/02 01:13:23;;;;;;;0.10;0.10;;;14.10;99.90;;;;;;5011943;28;20045;-93
2021/08/02 01:15:51;;;;;;;0.13;0.13;;;14.00;99.90;;;;;;5028571;28;20034;-91
2021/08/02 01:18:19;;;;;;;0.20;0.20;;;13.90;99.90;;;;;;5027673;28;20402;-91
2021/08/02 01:20:51;;;;;;;0.00;0.00;;;13.80;99.90;;;;;;5027578;28;20508;-90
2021/08/02 01:23:18;;;;;;;0.10;0.10;;;13.80;99.90;;;;;;5011038;28;20033;-92
2021/08/02 01:25:44;;;;;;;0.25;0.25;;;13.70;99.90;;;;;;5011498;28;20048;-92
2021/08/02 01:28:15;;;;;;;0.33;0.33;;;13.60;99.90;;;;;;5012295;28;20486;-92
2021/08/02 01:30:44;;;;;;;0.22;0.22;;;13.50;99.90;;;;;;5011483;28;20512;-92
2021/08/02 01:33:10;;;;;;;0.32;0.32;;;13.50;99.90;;;;;;5013076;28;20115;-92
2021/08/02 01:35:37;;;;;;;0.08;0.08;;;13.40;99.90;;;;;;5012652;28;20040;-93
2021/08/02 01:38:04;;;;;;;0.10;0.10;;;13.40;99.90;;;;;;5012786;28;20513;-92
2021/08/02 01:40:31;;;;;;;0.30;0.30;;;13.30;99.90;;;;;;5029484;28;20022;-92
2021/08/02 01:42:57;;;;;;;;;;;13.30;99.90;;;;;;5030052;28;20048;-92
2021/08/02 01:45:24;;;;;;;0.00;0.00;;;13.30;99.90;;;;;;5013593;28;19928;-92
2021/08/02 01:48:23;;;;;;;0.10;0.10;;;13.30;99.90;;;;;;5012814;28;20061;-92
2021/08/02 01:51:13;;;;;;;0.10;0.10;;;13.30;99.90;;;;;;5013029;28;20025;-92
2021/08/02 01:54:05;;;;;;;0.10;0.10;;;13.30;99.90;;;;;;5013070;28;20029;-93
2021/08/02 01:56:56;;;;;;;0.10;0.10;;;13.30;99.90;;;;;;5013253;28;20047;-93
2021/08/02 01:59:27;;;;;;;0.15;0.15;;;13.40;99.90;;;;;;5006440;28;20033;-93
2021/08/02 02:02:08;;;;;;;0.10;0.10;;;13.30;99.90;;;;;;5009436;28;20018;-93
2021/08/02 02:04:55;;;;;;;0.20;0.20;;;13.30;99.90;;;;;;5009078;28;20498;-92
2021/08/02 02:07:24;;;;;;;0.00;0.00;;;13.20;99.90;;;;;;5012805;28;20041;-92
2021/08/02 02:09:52;;;;;;;0.10;0.10;;;13.10;99.90;;;;;;5013256;28;20036;-94
2021/08/02 02:12:19;;;;;;;0.65;0.65;;;13.10;99.90;;;;;;5012226;28;20556;-91
2021/08/02 02:14:46;;;;;;;0.10;0.10;;;13.00;99.90;;;;;;5009924;28;20164;-91
2021/08/02 02:17:12;;;;;;;0.10;0.10;;;13.00;99.90;;;;;;5006324;28;20026;-91
2021/08/02 02:19:39;;;;;;;0.10;0.10;;;13.00;99.90;;;;;;5003184;28;20038;-91
2021/08/02 02:22:08;;;;;;;0.10;0.10;;;13.00;99.90;;;;;;5018725;28;20216;-91
2021/08/02 02:24:36;;;;;;;0.28;0.28;;;13.00;99.90;;;;;;5028524;28;20045;-91
2021/08/02 02:27:04;;;;;;;0.10;0.10;;;13.10;99.90;;;;;;5010866;28;20533;-91
2021/08/02 02:29:32;;;;;;;0.10;0.10;;;13.10;99.90;;;;;;5013481;28;20202;-91
2021/08/02 02:32:00;;;;;;;0.20;0.13;;;13.10;99.90;;;;;;5030202;28;20026;-91
2021/08/02 02:34:28;;;;;;;0.10;0.10;;;12.90;99.90;;;;;;5013520;28;20026;-92
2021/08/02 02:36:55;;;;;;;0.10;0.10;;;12.90;99.90;;;;;;5032220;28;20112;-91
2021/08/02 02:39:21;;;;;;;0.10;0.10;;;13.00;99.90;;;;;;5031437;28;20025;-92
2021/08/02 02:41:48;;;;;;;0.08;0.08;;;13.10;1.00;;;;;;5014558;28;20029;-92
2021/08/02 02:44:14;;;;;;;0.10;0.10;;;13.30;1.00;;;;;;5014990;28;20030;-93
2021/08/02 02:46:40;;;;;;;0.10;0.10;;;13.40;1.00;;;;;;5014575;28;20040;-93
2021/08/02 02:49:07;;;;;;;0.10;0.10;;;13.40;1.00;;;;;;5013971;28;20033;-92
2021/08/02 02:51:33;;;;;;;0.00;0.00;;;13.50;1.00;;;;;;5013443;28;20033;-93
2021/08/02 02:54:01;;;;;;;;;;;13.60;99.90;;;;;;5031230;28;20040;-92
2021/08/02 02:56:29;;;;;;;0.10;0.10;;;13.60;99.90;;;;;;5029842;28;19917;-91
2021/08/02 02:58:55;;;;;;;0.10;0.10;;;13.70;99.90;;;;;;5030698;28;20939;-91
2021/08/02 03:01:29;;;;;;;0.03;0.03;;;13.70;99.90;;;;;;5030282;28;20033;-91
2021/08/02 03:03:59;;;;;;;0.10;0.10;;;13.80;99.90;;;;;;5021424;28;20268;-91
2021/08/02 03:06:27;;;;;;;0.90;0.28;;;13.90;99.90;;;;;;5029321;28;20035;-91
2021/08/02 03:08:53;;;;;;;0.55;0.47;;;14.10;99.90;;;;;;5012103;28;20550;-91
2021/08/02 03:11:20;;;;;;;0.28;0.28;;;14.10;99.90;;;;;;5029433;28;20052;-91
2021/08/02 03:13:50;;;;;;;0.20;0.20;;;14.00;99.90;;;;;;5012557;28;20025;-91
2021/08/02 03:16:19;;;;;;;0.55;0.45;;;14.00;99.90;;;;;;5029608;28;20025;-91
2021/08/02 03:18:45;;;;;;;0.35;0.25;;;13.90;99.90;;;;;;5020810;28;20095;-91
2021/08/02 03:21:13;;;;;;;0.13;0.13;;;13.80;99.90;;;;;;5024309;28;20029;-91
2021/08/02 03:23:53;;;;;;;0.00;0.00;;;13.70;99.90;;;;;;5011341;28;20029;-92
2021/08/02 03:26:27;;;;;;;0.00;0.00;;;13.60;99.90;;;;;;5011852;28;20547;-91
2021/08/02 03:29:07;;;;;;;0.10;0.10;;;13.60;99.90;;;;;;5012831;28;20045;-91
2021/08/02 03:31:52;;;;;;;0.00;0.00;;;13.70;99.90;;;;;;5013289;28;20025;-91
2021/08/02 03:34:23;;;;;;;0.22;0.22;;;13.70;99.90;;;;;;5012039;28;20029;-91
2021/08/02 03:36:51;;;;;;;0.10;0.10;;;13.70;99.90;;;;;;5030490;28;20032;-92
2021/08/02 03:39:21;;;;;;;0.10;0.10;;;13.70;99.90;;;;;;5030779;28;20029;-91
2021/08/02 03:41:50;;;;;;;1.08;0.45;;;13.70;99.90;;;;;;5003773;28;20494;-92
2021/08/02 03:44:17;;;;;;;0.10;0.10;;;13.60;99.90;;;;;;5013912;28;20080;-91
2021/08/02 03:46:44;;;;;;;0.10;0.10;;;13.60;99.90;;;;;;5030624;28;20056;-91
2021/08/02 03:49:10;;;;;;;0.65;0.38;;;13.60;99.90;;;;;;5013370;28;20041;-91
2021/08/02 03:51:48;;;;;;;0.20;0.20;;;13.70;99.90;;;;;;5012798;28;20034;-92
2021/08/02 03:54:15;;;;;;;0.10;0.10;;;13.80;99.90;;;;;;5021320;28;20048;-91
2021/08/02 03:56:43;;;;;;;0.13;0.13;;;13.90;99.90;;;;;;5012286;28;20026;-92
2021/08/02 03:59:10;;;;;;;0.10;0.10;;;13.90;99.90;;;;;;5012875;28;20025;-92
2021/08/02 04:01:41;;;;;;;0.10;0.10;;;13.90;99.90;;;;;;5029428;28;20025;-92
2021/08/02 04:04:07;;;;;;;0.00;0.00;;;14.00;99.90;;;;;;5030022;28;20042;-91
2021/08/02 04:06:35;;;;;;;0.32;0.32;;;14.10;99.90;;;;;;5030213;28;20478;-92
2021/08/02 04:09:03;;;;;;;0.20;0.20;;;14.10;99.90;;;;;;5009801;28;20034;-92
2021/08/02 04:11:29;;;;;;;0.08;0.08;;;14.20;99.90;;;;;;5012377;28;20112;-92
2021/08/02 04:13:54;;;;;;;0.37;0.30;;;14.10;99.90;;;;;;5011649;28;20566;-92
2021/08/02 04:16:20;;;;;;;0.10;0.10;;;14.10;99.90;;;;;;5012791;28;20041;-92
2021/08/02 04:18:46;;;;;;;0.00;0.00;;;14.00;99.90;;;;;;5012182;28;20112;-91
2021/08/02 04:21:12;;;;;;;0.17;0.17;;;14.00;99.90;;;;;;5029537;28;20097;-92
2021/08/02 04:23:38;;;;;;;0.20;0.20;;;14.00;99.90;;;;;;5012005;28;20441;-90
2021/08/02 04:26:05;;;;;;;0.10;0.10;;;14.00;99.90;;;;;;5009775;28;20033;-91
2021/08/02 04:28:31;;;;;;;;;;;13.90;99.90;;;;;;5012025;28;20560;-92
2021/08/02 04:30:57;;;;;;;0.05;0.05;;;13.90;99.90;;;;;;5010914;28;19909;-91
2021/08/02 04:33:23;;;;;;;0.10;0.10;;;13.90;1.00;;;;;;5011197;28;20040;-91
2021/08/02 04:35:49;;;;;;;0.00;0.00;;;13.90;1.00;;;;;;5028379;28;20272;-92
2021/08/02 04:38:15;;;;;;;0.13;0.13;;;13.90;1.00;;;;;;5028627;28;20042;-91
2021/08/02 04:40:42;;;;;;;0.40;0.40;;;13.90;1.00;;;;;;5028240;28;20029;-91
2021/08/02 04:43:09;;;;;;;0.10;0.10;;;13.80;1.00;;;;;;5011504;28;20079;-91
2021/08/02 04:45:35;;;;;;;0.10;0.10;;;13.80;31.10;;;;;;5026891;28;20025;-89
2021/08/02 04:48:02;;;;;;;0.13;0.10;;;13.80;99.90;;;;;;5007585;28;20064;-90
2021/08/02 04:50:28;;;;;;;0.00;0.00;;;13.90;99.90;;;;;;5008604;28;20400;-90
2021/08/02 04:52:55;;;;;;;0.00;0.00;;;14.00;99.90;;;;;;5006964;28;20029;-88
2021/08/02 04:55:21;;;;;;;0.10;0.10;;;14.00;99.90;;;;;;5007680;28;20034;-89
2021/08/02 04:57:47;;;;;;;0.13;0.13;;;13.90;99.90;;;;;;5023363;28;20056;-89
2021/08/02 05:00:16;;;;;;;0.10;0.10;;;13.90;99.90;;;;;;4992312;28;20042;-90
2021/08/02 05:02:43;;;;;;;0.10;0.10;;;13.70;99.90;;;;;;5008476;28;20025;-89
2021/08/02 05:05:09;;;;;;;0.20;0.20;;;13.80;99.90;;;;;;5018849;28;20400;-88
2021/08/02 05:07:35;;;;;;;;;;;13.60;99.90;;;;;;5009167;28;20037;-89
2021/08/02 05:10:01;;;;;;;0.23;0.23;;;13.70;99.90;;;;;;5006812;28;19920;-89
2021/08/02 05:12:27;;;;;;;0.10;0.10;;;13.60;99.90;;;;;;5007645;28;20029;-89
2021/08/02 05:14:53;;;;;;;0.20;0.20;;;13.60;1.00;;;;;;5007839;28;20030;-90
2021/08/02 05:17:19;;;;;;;0.10;0.10;;;13.80;1.00;;;;;;5006746;28;20033;-90
2021/08/02 05:19:44;;;;;;;0.00;0.00;;;13.90;1.00;;;;;;5008385;28;20064;-90
2021/08/02 05:22:10;;;;;;;0.13;0.13;;;13.70;1.00;;;;;;5008448;28;20072;-90
2021/08/02 05:24:36;;;;;;;0.10;0.10;;;13.60;99.90;;;;;;5005765;28;20060;-90
2021/08/02 05:27:02;;;;;;;0.00;0.00;;;13.60;99.90;;;;;;5008152;28;20026;-91
2021/08/02 05:29:28;;;;;;;0.10;0.10;;;13.60;99.90;;;;;;5006637;28;20107;-90
2021/08/02 05:31:54;;;;;;;0.10;0.10;;;13.70;1.00;;;;;;5007684;28;20495;-91
2021/08/02 05:34:19;;;;;;;0.00;0.00;;;13.90;1.00;;;;;;5006694;28;20073;-91
2021/08/02 05:36:45;;;;;;;0.17;0.17;;;14.10;1.00;;;;;;5006517;28;20088;-91
2021/08/02 05:39:16;;;;;;;0.20;0.20;;;14.00;99.90;;;;;;5010184;28;20030;-91
2021/08/02 05:41:42;;;;;;;0.00;0.00;;;13.60;1.00;;;;;;5005396;28;20041;-92
2021/08/02 05:44:10;;;;;;;0.10;0.10;;;13.70;1.00;;;;;;5011113;28;20053;-94
2021/08/02 05:46:44;;;;;;;0.10;0.10;;;14.00;12.00;;;;;;5016878;28;20038;-96
2021/08/02 05:49:10;;;;;;;0.10;0.10;;;14.20;1.00;;;;;;5017206;28;20021;-94
2021/08/02 05:51:36;;;;;;;0.10;0.10;;;14.60;99.90;;;;;;5010267;28;20542;-89
2021/08/02 05:54:02;;;;;;;0.10;0.10;;;14.70;99.90;;;;;;5010435;28;20056;-90
2021/08/02 05:56:28;;;;;;;0.10;0.10;;;14.90;99.90;;;;;;5010688;28;20701;-90
2021/08/02 05:58:54;;;;;;;0.00;0.00;;;14.90;99.90;;;;;;5029662;28;20120;-90
2021/08/02 06:01:19;;;;;;;0.10;0.10;;;14.90;99.90;;;;;;5032526;28;20039;-90
2021/08/02 06:03:45;;;;;;;0.00;0.00;;;15.10;99.90;;;;;;5014294;28;20124;-90
2021/08/02 06:06:11;;;;;;;0.00;0.00;;;15.20;99.90;;;;;;5014620;28;20033;-90
2021/08/02 06:08:40;;;;;;;0.00;0.00;;;15.30;99.90;;;;;;5014045;28;20033;-91
2021/08/02 06:11:07;;;;;;;0.00;0.00;;;15.40;99.90;;;;;;5013825;28;20683;-90
2021/08/02 06:13:32;;;;;;;;;;;15.50;99.90;;;;;;5015057;28;20545;-90
2021/08/02 06:15:58;;;;;;;0.00;0.00;;;15.20;99.90;;;;;;5014384;28;20000;-90
2021/08/02 06:18:24;;;;;;;0.13;0.13;;;15.30;99.90;;;;;;5032432;28;20036;-90
2021/08/02 06:20:50;;;;;;;0.00;0.00;;;15.70;99.90;;;;;;5031985;28;20107;-91
2021/08/02 06:23:15;;;;;;;0.20;0.20;;;15.80;99.90;;;;;;5014101;28;20029;-90
2021/08/02 06:25:41;;;;;;;0.33;0.33;;;15.90;99.90;;;;;;5014261;28;20621;-90
2021/08/02 06:28:07;;;;;;;0.10;0.10;;;15.90;99.90;;;;;;5014229;28;20040;-90
2021/08/02 06:30:33;;;;;;;0.00;0.00;;;15.80;99.90;;;;;;5014703;28;20120;-90
2021/08/02 06:32:59;;;;;;;0.37;0.37;;;16.00;99.90;;;;;;5031891;28;20030;-90
2021/08/02 06:35:26;;;;;;;0.17;0.17;;;16.60;99.90;;;;;;5014064;28;20585;-90
2021/08/02 06:37:52;;;;;;;0.10;0.10;;;16.60;99.90;;;;;;5014322;28;20057;-90
2021/08/02 06:40:18;;;;;;;0.15;0.15;;;16.10;99.90;;;;;;5013841;28;20060;-89
2021/08/02 06:42:44;;;;;;;0.10;0.10;;;16.30;99.90;;;;;;5031972;28;20057;-90
2021/08/02 06:45:10;;;;;;;0.22;0.22;;;16.00;99.90;;;;;;5014055;28;20033;-90
2021/08/02 06:47:36;;;;;;;0.22;0.20;;;16.30;99.90;;;;;;5013581;28;20057;-90
2021/08/02 06:50:05;;;;;;;0.00;0.00;;;16.30;99.90;;;;;;5030331;28;20133;-90
2021/08/02 06:52:31;;;;;;;0.10;0.10;;;15.90;99.90;;;;;;5013731;28;20029;-91
2021/08/02 06:54:57;;;;;;;0.50;0.50;;;16.00;99.90;;;;;;5031686;28;20079;-89
2021/08/02 06:57:22;;;;;;;0.47;0.30;;;15.80;99.90;;;;;;5031353;28;20022;-89
2021/08/02 06:59:48;;;;;;;0.20;0.20;;;15.90;99.90;;;;;;5031198;28;20026;-90
2021/08/02 07:02:14;;;;;;;0.10;0.10;;;15.80;99.90;;;;;;5031471;28;20032;-89
2021/08/02 07:04:40;;;;;;;0.10;0.10;;;15.80;99.90;;;;;;5031589;28;20898;-90
2021/08/02 07:07:06;;;;;;;0.27;0.27;;;15.60;99.90;;;;;;5030973;28;20104;-89
2021/08/02 07:09:32;;;;;;;0.10;0.10;;;15.70;99.90;;;;;;5013197;28;20040;-90
2021/08/02 07:11:58;;;;;;;0.20;0.20;;;15.70;99.90;;;;;;5029815;28;20040;-90
2021/08/02 07:14:24;;;;;;;0.20;0.20;;;15.70;99.90;;;;;;5031265;28;20025;-90
2021/08/02 07:16:49;;;;;;;1.40;0.37;;;15.80;99.90;;;;;;5031344;28;20442;-90
2021/08/02 07:19:15;;;;;;;0.10;0.10;;;16.20;99.90;;;;;;5013723;28;20072;-89
2021/08/02 07:21:41;;;;;;;0.10;0.10;;;16.40;99.90;;;;;;5013397;28;20034;-89
2021/08/02 07:24:07;;;;;;;0.03;0.03;;;16.50;99.90;;;;;;5013201;28;20022;-90
2021/08/02 07:26:33;;;;;;;0.20;0.20;;;16.00;99.90;;;;;;5029790;28;20049;-90
2021/08/02 07:28:58;;;;;;;0.20;0.20;;;16.40;99.90;;;;;;5013283;28;20387;-90
2021/08/02 07:31:25;;;;;;;0.10;0.10;;;17.30;99.90;;;;;;5013108;28;20044;-89
2021/08/02 07:33:51;;;;;;;0.20;0.20;;;17.90;99.90;;;;;;5013151;28;20116;-89
2021/08/02 07:36:17;;;;;;;0.20;0.20;;;18.20;99.90;;;;;;5030567;28;20113;-89
2021/08/02 07:38:44;;;;;;;0.00;0.00;;;18.30;99.90;;;;;;5030694;28;20032;-90
2021/08/02 07:41:14;;;;;;;0.05;0.05;;;18.70;99.90;;;;;;5005065;28;20726;-90
2021/08/02 07:43:40;;;;;;;0.10;0.10;;;20.90;99.90;;;;;;5010006;28;20026;-89
2021/08/02 07:46:06;;;;;;;0.10;0.10;;;22.10;99.90;;;;;;4993121;28;20604;-89
2021/08/02 07:48:31;;;;;;;0.13;0.13;;;22.80;99.90;;;;;;5010581;28;20054;-89
2021/08/02 07:50:57;;;;;;;0.00;0.00;;;20.60;99.90;;;;;;5024972;28;20041;-89
2021/08/02 07:53:23;;;;;;;0.10;0.10;;;19.50;99.90;;;;;;5019004;28;20029;-89
2021/08/02 07:55:49;;;;;;;0.20;0.20;;;20.20;99.90;;;;;;5012207;28;20116;-90
2021/08/02 07:58:16;;;;;;;1.70;0.57;;;19.60;99.90;;;;;;5011955;28;20033;-89
2021/08/02 08:00:41;;;;;;;2.92;1.08;;;19.60;99.90;;;;;;5029607;28;20037;-90
2021/08/02 08:03:08;;;;;;;0.10;0.10;;;20.60;99.90;;;;;;5012372;28;20025;-90
2021/08/02 08:05:34;;;;;;;0.00;0.00;;;22.00;99.90;;;;;;5030411;28;20044;-90
2021/08/02 08:08:00;;;;;;;0.25;0.25;;;21.90;99.90;;;;;;5029602;28;20057;-89
2021/08/02 08:10:27;;;;;;;0.13;0.13;;;25.70;99.90;;;;;;5012004;28;20569;-90
2021/08/02 08:12:55;;;;;;;0.03;0.03;;;29.00;99.90;;;;;;5011665;28;20033;-89
2021/08/02 08:15:23;;;;;;;0.00;0.00;;;28.00;98.60;;;;;;5012589;28;20044;-91
2021/08/02 08:17:49;;;;;;;0.05;0.05;;;30.20;91.50;;;;;;5012282;28;20068;-89
2021/08/02 08:20:19;;;;;;;0.00;0.00;;;32.10;84.40;;;;;;5012458;28;20075;-89
2021/08/02 08:22:45;;;;;;;0.00;0.00;;;33.90;77.70;;;;;;5029461;28;20021;-89
2021/08/02 08:25:11;;;;;;;0.00;0.00;;;35.10;69.00;;;;;;5012042;28;20033;-88
2021/08/02 08:27:37;;;;;;;0.10;0.10;;;37.60;70.70;;;;;;5029077;28;20026;-89
2021/08/02 08:30:07;;;;;;;0.20;0.20;;;31.70;71.40;;;;;;5021675;28;20033;-89
2021/08/02 08:32:34;;;;;;;0.08;0.08;;;28.40;78.80;;;;;;5024634;28;20391;-89
2021/08/02 08:35:01;;;;;;;0.00;0.00;;;25.90;90.00;;;;;;5003817;28;20413;-89
2021/08/02 08:37:28;;;;;;;0.10;0.10;;;23.90;92.80;;;;;;5008471;28;20031;-90
2021/08/02 08:39:56;;;;;;;0.00;0.00;;;22.00;98.70;;;;;;5009168;28;20037;-92
2021/08/02 08:42:26;;;;;;;0.00;0.00;;;21.00;99.30;;;;;;5024001;28;20530;-90
2021/08/02 08:44:52;;;;;;;0.00;0.00;;;21.10;98.60;;;;;;5010213;28;20112;-88
2021/08/02 08:47:18;;;;;;;;;;;22.90;95.70;;;;;;5024481;28;20129;-88
2021/08/02 08:49:46;;;;;;;0.10;0.03;;;22.60;95.70;;;;;;5028792;28;19913;-88
2021/08/02 08:52:15;;;;;;;0.05;0.05;;;22.40;96.00;;;;;;5027635;28;20508;-88
2021/08/02 08:54:43;;;;;;;0.20;0.00;;;23.10;95.70;;;;;;5023241;28;20068;-90
2021/08/02 08:57:11;;;;;;;0.00;0.00;;;23.20;95.80;;;;;;5026724;28;20113;-89
2021/08/02 08:59:52;;;;;;;0.00;0.00;;;29.40;88.80;;;;;;5027130;28;20028;-89
2021/08/02 09:02:28;;;;;;;0.17;0.10;;;35.70;64.70;;;;;;5028503;28;20037;-90
2021/08/02 09:05:03;;;;;;;0.22;0.10;;;38.10;51.50;;;;;;5026705;28;20021;-90
2021/08/02 09:07:38;;;;;;;0.00;0.00;;;30.80;68.80;;;;;;5012826;28;20025;-90
2021/08/02 09:10:09;;;;;;;0.25;0.25;;;27.30;81.30;;;;;;5028965;28;20104;-90
2021/08/02 09:12:51;;;;;;;0.00;0.00;;;29.60;76.40;;;;;;5008200;28;20061;-90
2021/08/02 09:15:39;;;;;;;0.00;0.00;;;34.90;65.30;;;;;;5006024;28;20057;-90
2021/08/02 09:18:09;;;;;;;0.10;0.10;;;33.50;56.20;;;;;;5017903;28;20042;-90
2021/08/02 09:20:36;;;;;;;0.00;0.00;;;32.60;62.70;;;;;;5014726;28;20037;-90
2021/08/02 09:23:12;;;;;;;0.45;0.00;;;36.00;64.50;;;;;;5017115;28;20113;-90
2021/08/02 09:25:49;;;;;;;;;;;37.30;42.00;;;;;;5021297;28;20024;-90
2021/08/02 09:28:17;;;;;;;0.85;0.55;;;39.50;39.30;;;;;;5018924;28;20039;-90
2021/08/02 09:31:01;;;;;;;0.00;0.00;;;39.30;34.40;;;;;;5025151;28;20026;-90
2021/08/02 09:33:43;;;;;;;0.00;0.00;;;37.50;30.40;;;;;;5026427;28;20026;-89
2021/08/02 09:36:08;;;;;;;0.10;0.10;;;28.50;57.00;;;;;;5026644;28;20668;-88
2021/08/02 09:38:34;;;;;;;0.00;0.00;;;24.80;66.10;;;;;;5028186;28;20025;-90
2021/08/02 09:41:00;;;;;;;0.00;0.00;;;30.50;53.50;;;;;;5024423;28;20030;-91
2021/08/02 09:43:30;;;;;;;0.00;0.00;;;35.40;41.20;;;;;;5008931;28;20029;-90
2021/08/02 09:46:09;;;;;;;0.00;0.00;;;36.00;37.50;;;;;;5010467;28;20091;-88
2021/08/02 09:48:39;;;;;;;0.00;0.00;;;38.30;33.60;;;;;;5025856;28;20130;-89
2021/08/02 09:51:21;;;;;;;0.00;0.00;;;37.70;24.60;;;;;;5010930;28;20033;-92
2021/08/02 09:53:54;;;;;;;0.10;0.10;;;38.30;22.10;;;;;;5009879;28;20033;-89
2021/08/02 09:56:23;;;;;;;0.38;0.00;;;39.10;25.60;;;;;;5027526;28;20037;-90
2021/08/02 09:58:49;;;;;;;0.00;0.00;;;37.50;22.30;;;;;;5008959;28;20030;-88
2021/08/02 10:01:17;;;;;;;0.00;0.00;;;38.20;19.20;;;;;;5008282;28;20029;-88
2021/08/02 10:03:44;;;;;;;0.00;0.00;;;38.80;19.70;;;;;;5026096;28;20156;-88
2021/08/02 10:06:12;;;;;;;0.20;0.20;;;39.00;18.00;;;;;;5009220;28;20056;-89
2021/08/02 10:08:38;;;;;;;0.00;0.00;;;38.80;13.80;;;;;;5023303;28;20049;-88
2021/08/02 10:11:05;;;;;;;0.00;0.00;;;35.20;19.10;;;;;;5025335;28;20033;-90
2021/08/02 10:13:35;;;;;;;0.00;0.00;;;32.80;28.10;;;;;;5004835;28;20042;-90
2021/08/02 10:16:04;;;;;;;0.00;0.00;;;33.00;29.30;;;;;;5021904;28;20068;-89
2021/08/02 10:18:31;;;;;;;0.00;0.00;;;29.10;40.40;;;;;;5009425;28;20543;-91
2021/08/02 10:21:11;;;;;;;0.00;0.00;;;28.80;41.70;;;;;;5007625;28;20486;-89
2021/08/02 10:23:38;;;;;;;0.28;0.20;;;26.40;51.40;;;;;;5006234;28;20025;-90
2021/08/02 10:26:27;;;;;;;0.45;0.08;;;33.30;34.40;;;;;;5010017;28;20117;-90
2021/08/02 10:28:58;;;;;;;0.00;0.00;;;35.90;30.10;;;;;;5013813;28;20056;-89
2021/08/02 10:31:26;;;;;;;0.10;0.10;;;37.10;27.00;;;;;;5022820;28;20075;-91
2021/08/02 10:33:52;;;;;;;1.00;0.30;;;36.70;19.10;;;;;;5027569;28;20017;-90
2021/08/02 10:36:20;;;;;;;2.55;0.85;;;37.20;20.90;;;;;;5027097;28;20478;-90
2021/08/02 10:38:48;;;;;;;0.20;0.00;;;36.50;21.90;;;;;;5023232;28;20030;-89
2021/08/02 10:41:32;;;;;;;0.22;0.22;;;36.90;15.80;;;;;;5011948;28;20076;-90
2021/08/02 10:44:23;;;;;;;0.08;0.08;;;36.30;24.70;;;;;;5018829;28;20449;-90
2021/08/02 10:47:00;;;;;;;0.00;0.00;;;36.30;20.50;;;;;;5030364;28;20042;-90
2021/08/02 10:49:26;;;;;;;0.00;0.00;;;35.50;21.50;;;;;;5030696;28;20048;-90
2021/08/02 10:51:56;;;;;;;0.00;0.00;;;35.60;22.50;;;;;;5030762;28;20057;-91
2021/08/02 10:54:23;;;;;;;0.00;0.00;;;34.30;24.20;;;;;;5011366;28;20033;-90
2021/08/02 10:56:49;;;;;;;0.10;0.10;;;34.20;24.20;;;;;;5012966;28;20047;-91
2021/08/02 10:59:18;;;;;;;;;;;34.80;24.20;;;;;;5028648;28;20521;-90
2021/08/02 11:01:53;;;;;;;0.00;0.00;;;35.00;22.90;;;;;;5012731;28;19920;-89
2021/08/02 11:04:21;;;;;;;0.00;0.00;;;34.20;29.20;;;;;;5030751;28;20029;-90
2021/08/02 11:06:52;;;;;;;0.10;0.00;;;31.90;34.20;;;;;;5027937;28;20129;-89
2021/08/02 11:09:29;;;;;;;0.00;0.00;;;29.60;41.30;;;;;;5014741;28;20080;-94
2021/08/02 11:12:11;;;;;;;0.08;0.08;;;27.10;41.70;;;;;;5026205;28;20247;-91
2021/08/02 11:14:51;;;;;;;0.10;0.00;;;26.80;41.90;;;;;;5024887;28;20042;-90
2021/08/02 11:17:22;;;;;;;0.00;0.00;;;26.90;43.00;;;;;;5028294;28;20457;-89
2021/08/02 11:19:59;;;;;;;0.00;0.00;;;25.60;45.40;;;;;;5024719;28;20018;-91
2021/08/02 11:22:25;;;;;;;0.00;0.00;;;25.10;46.20;;;;;;5028359;28;20030;-93
2021/08/02 11:24:54;;;;;;;0.00;0.00;;;25.00;45.50;;;;;;5016149;28;20029;-93
2021/08/02 11:27:20;;;;;;;0.05;0.05;;;24.80;46.80;;;;;;5029022;28;20039;-89
2021/08/02 11:29:55;;;;;;;;;;;24.20;50.40;;;;;;5027810;28;20075;-90
2021/08/02 11:32:22;;;;;;;0.00;0.00;;;25.20;48.20;;;;;;5021214;28;20404;-89
2021/08/02 11:34:52;;;;;;;0.00;0.00;;;25.20;47.50;;;;;;5020817;28;20049;-89
2021/08/02 11:37:26;;;;;;;0.10;0.10;;;25.20;49.00;;;;;;5022943;28;20029;-89
2021/08/02 11:40:04;;;;;;;0.00;0.00;;;24.60;51.10;;;;;;5023667;28;20038;-89
2021/08/02 11:42:31;;;;;;;0.00;0.00;;;24.40;53.30;;;;;;5028599;28;20056;-88
2021/08/02 11:44:59;;;;;;;0.00;0.00;;;24.20;53.60;;;;;;5030544;28;20113;-88
2021/08/02 11:47:35;;;;;;;0.10;0.00;;;24.20;54.30;;;;;;5030028;28;20042;-89
2021/08/02 11:50:03;;;;;;;0.10;0.10;;;24.30;55.30;;;;;;5029178;28;20053;-88
2021/08/02 11:52:29;;;;;;;0.10;0.10;;;24.10;53.90;;;;;;5030143;28;20022;-88
2021/08/02 11:55:13;;;;;;;0.00;0.00;;;23.90;56.30;;;;;;5003026;28;20661;-88
2021/08/02 11:57:39;;;;;;;0.00;0.00;;;23.40;56.10;;;;;;5011365;28;20073;-89
2021/08/02 12:00:14;;;;;;;0.00;0.00;;;23.60;58.20;;;;;;5029424;28;20036;-88
2021/08/02 12:02:45;;;;;;;0.00;0.00;;;23.90;69.90;;;;;;5013158;28;20037;-88
2021/08/02 12:05:22;;;;;;;0.15;0.10;;;23.90;56.80;;;;;;5028783;28;20087;-89
2021/08/02 12:07:48;;;;;;;0.00;0.00;;;23.70;57.40;;;;;;5029219;28;20034;-90
2021/08/02 12:10:20;;;;;;;0.00;0.00;;;23.40;57.50;;;;;;5025482;28;20044;-89
2021/08/02 12:13:07;;;;;;;0.00;0.00;;;23.40;60.40;;;;;;5020012;28;20156;-91
2021/08/02 12:15:34;;;;;;;0.00;0.00;;;22.90;57.30;;;;;;5008585;28;20026;-91
2021/08/02 12:18:00;;;;;;;0.00;0.00;;;22.80;71.50;;;;;;5005696;28;20406;-91
2021/08/02 12:20:32;;;;;;;0.00;0.00;;;23.10;59.60;;;;;;5023769;28;20036;-91
2021/08/02 12:22:59;;;;;;;0.00;0.00;;;23.50;57.60;;;;;;5028135;28;20079;-90
2021/08/02 12:25:46;;;;;;;0.30;0.30;;;23.50;57.10;;;;;;5029118;28;20105;-90
2021/08/02 12:28:12;;;;;;;0.00;0.00;;;23.30;56.80;;;;;;5025076;28;20029;-89
2021/08/02 12:30:39;;;;;;;0.00;0.00;;;23.30;57.80;;;;;;5029909;28;20040;-90
2021/08/02 12:33:08;;;;;;;0.00;0.00;;;23.10;57.10;;;;;;5029618;28;20033;-90
2021/08/02 12:35:34;;;;;;;0.00;0.00;;;23.30;57.70;;;;;;5012737;28;20033;-90
2021/08/02 12:38:01;;;;;;;0.08;0.08;;;23.30;58.80;;;;;;5012724;28;20061;-90
2021/08/02 12:40:27;;;;;;;0.00;0.00;;;23.10;58.60;;;;;;5030477;28;20034;-90
2021/08/02 12:42:53;;;;;;;0.00;0.00;;;23.30;58.60;;;;;;5030544;28;20103;-90
2021/08/02 12:45:19;;;;;;;0.00;0.00;;;23.30;57.80;;;;;;5030443;28;20037;-90
2021/08/02 12:47:49;;;;;;;0.00;0.00;;;23.20;58.50;;;;;;5030065;28;20057;-90
2021/08/02 12:50:16;;;;;;;0.00;0.00;;;23.40;58.70;;;;;;5012594;28;20034;-90
2021/08/02 12:52:44;;;;;;;0.00;0.00;;;23.30;57.70;;;;;;5030063;28;20079;-90
2021/08/02 12:55:11;;;;;;;0.00;0.00;;;23.20;57.40;;;;;;5012794;28;20513;-90
2021/08/02 12:57:41;;;;;;;0.05;0.00;;;23.10;57.80;;;;;;5029874;28;20115;-89
2021/08/02 13:00:10;;;;;;;0.00;0.00;;;22.80;56.50;;;;;;5012569;28;20041;-89